Time;durP1;ratioP1;P1;durP2;ratioP2;P2;SDS_P1;SDS_P2;PMS_P1;PMS_P2;Temp;Humidity;BMP_temperature;BMP_pressure;BME280_temperature;BME280_humidity;BME280_pressure;Samples;Min_cycle;Max_cycle;Signal;HPM_P1;HPM_P2
2023/12/27 00:00:04;;;;;;;8.30;4.72;;;7.00;99.90;;;;;;4941300;28;20138;-77
2023/12/27 00:02:32;;;;;;;8.68;6.05;;;7.00;99.90;;;;;;4918361;28;20062;-73
2023/12/27 00:04:59;;;;;;;10.30;5.60;;;7.10;99.90;;;;;;4955664;28;20055;-74
2023/12/27 00:07:26;;;;;;;7.03;4.95;;;7.10;99.90;;;;;;4951080;28;20066;-73
2023/12/27 00:09:53;;;;;;;6.32;3.63;;;7.10;1.00;;;;;;4940790;28;20576;-74
2023/12/27 00:12:19;;;;;;;4.47;3.35;;;7.20;99.90;;;;;;4939020;28;20402;-74
2023/12/27 00:14:46;;;;;;;3.53;2.22;;;7.20;99.90;;;;;;4950443;28;20138;-74
2023/12/27 00:17:13;;;;;;;3.30;1.90;;;7.30;99.90;;;;;;4952092;28;20488;-74
2023/12/27 00:19:40;;;;;;;2.42;1.55;;;7.30;99.90;;;;;;4952663;28;20058;-74
2023/12/27 00:22:07;;;;;;;2.22;1.50;;;7.40;99.90;;;;;;4951997;28;20708;-73
2023/12/27 00:24:34;;;;;;;1.45;1.25;;;7.40;99.90;;;;;;4957432;28;20306;-73
2023/12/27 00:27:02;;;;;;;2.33;1.23;;;7.50;99.90;;;;;;4961360;28;20061;-73
2023/12/27 00:29:29;;;;;;;1.65;1.05;;;7.50;99.90;;;;;;4956023;28;20051;-73
2023/12/27 00:31:56;;;;;;;1.85;1.20;;;7.50;99.90;;;;;;4957942;28;20051;-74
2023/12/27 00:34:23;;;;;;;1.33;0.98;;;7.60;99.90;;;;;;4958051;28;20054;-74
2023/12/27 00:36:51;;;;;;;1.58;1.00;;;7.60;99.90;;;;;;4958833;28;20051;-74
2023/12/27 00:39:23;;;;;;;2.42;0.90;;;7.60;99.90;;;;;;4958128;28;20058;-74
2023/12/27 00:41:51;;;;;;;1.15;0.80;;;7.70;99.90;;;;;;4937444;28;20731;-74
2023/12/27 00:44:18;;;;;;;0.65;0.63;;;7.70;99.90;;;;;;4972363;28;20110;-73
2023/12/27 00:46:45;;;;;;;0.65;0.65;;;7.70;99.90;;;;;;4950262;28;20573;-74
2023/12/27 00:49:12;;;;;;;1.10;0.60;;;7.80;99.90;;;;;;4931253;28;20050;-73
2023/12/27 00:51:39;;;;;;;1.10;0.60;;;7.80;99.90;;;;;;4929017;28;20515;-74
2023/12/27 00:54:06;;;;;;;0.82;0.70;;;7.90;99.90;;;;;;4943647;28;20484;-74
2023/12/27 00:56:33;;;;;;;0.50;0.50;;;7.90;98.80;;;;;;4942575;28;20051;-74
2023/12/27 00:59:00;;;;;;;1.65;0.80;;;7.90;72.40;;;;;;4952749;28;20524;-74
2023/12/27 01:01:30;;;;;;;1.65;1.00;;;7.90;82.80;;;;;;4954935;28;20134;-74
2023/12/27 01:03:57;;;;;;;1.38;0.80;;;7.90;92.00;;;;;;4942712;28;20549;-74
2023/12/27 01:06:24;;;;;;;1.23;0.80;;;8.00;73.80;;;;;;4938832;28;20058;-74
2023/12/27 01:08:51;;;;;;;0.80;0.60;;;8.00;99.90;;;;;;4941951;28;20382;-74
2023/12/27 01:11:18;;;;;;;1.58;0.80;;;8.00;99.90;;;;;;4960843;28;20057;-74
2023/12/27 01:13:45;;;;;;;1.30;0.70;;;8.00;99.90;;;;;;4945258;28;20524;-74
2023/12/27 01:16:14;;;;;;;1.02;0.88;;;8.10;99.90;;;;;;4946123;28;20072;-74
2023/12/27 01:18:41;;;;;;;0.65;0.40;;;8.10;99.90;;;;;;4956564;28;20058;-74
2023/12/27 01:21:09;;;;;;;1.30;0.70;;;8.10;1.00;;;;;;4955898;28;20053;-74
2023/12/27 01:23:36;;;;;;;1.40;0.50;;;8.10;99.90;;;;;;4946751;28;20067;-74
2023/12/27 01:26:03;;;;;;;0.90;0.70;;;8.10;1.00;;;;;;4959548;28;20328;-73
2023/12/27 01:28:30;;;;;;;1.17;0.68;;;8.10;99.90;;;;;;4957636;28;20270;-74
2023/12/27 01:30:57;;;;;;;1.27;0.65;;;8.10;16.50;;;;;;4959127;28;20042;-74
2023/12/27 01:33:24;;;;;;;0.60;0.50;;;8.20;99.90;;;;;;4953623;28;20746;-74
2023/12/27 01:35:51;;;;;;;2.13;0.55;;;8.10;80.70;;;;;;4951083;28;20640;-74
2023/12/27 01:38:18;;;;;;;2.05;0.75;;;8.10;1.00;;;;;;4952752;28;20053;-74
2023/12/27 01:40:49;;;;;;;0.80;0.80;;;8.10;99.90;;;;;;4938153;28;20053;-75
2023/12/27 01:43:16;;;;;;;1.30;0.60;;;8.10;1.00;;;;;;4953963;28;20061;-75
2023/12/27 01:45:43;;;;;;;1.25;0.65;;;8.20;99.90;;;;;;4924568;28;21872;-74
2023/12/27 01:48:10;;;;;;;0.77;0.45;;;8.20;99.90;;;;;;4953960;28;20492;-74
2023/12/27 01:50:39;;;;;;;0.65;0.50;;;8.20;99.90;;;;;;4951354;28;20142;-74
2023/12/27 01:53:08;;;;;;;0.73;0.47;;;8.20;1.00;;;;;;4941052;28;20105;-74
2023/12/27 01:55:35;;;;;;;1.10;0.82;;;8.20;1.00;;;;;;4943307;28;20282;-74
2023/12/27 01:58:02;;;;;;;0.63;0.43;;;8.20;99.90;;;;;;4943712;28;20054;-74
2023/12/27 02:00:30;;;;;;;2.45;0.70;;;8.20;1.00;;;;;;4946323;28;20082;-74
2023/12/27 02:02:57;;;;;;;1.15;0.50;;;8.10;1.00;;;;;;4938177;28;20050;-74
2023/12/27 02:05:24;;;;;;;0.57;0.40;;;8.20;99.90;;;;;;4953689;28;20509;-74
2023/12/27 02:07:51;;;;;;;0.82;0.43;;;8.10;99.90;;;;;;4956990;28;20047;-75
2023/12/27 02:10:18;;;;;;;0.73;0.40;;;8.20;99.90;;;;;;4953812;28;20046;-75
2023/12/27 02:12:45;;;;;;;1.15;0.60;;;8.20;99.90;;;;;;4955887;28;20563;-74
2023/12/27 02:15:12;;;;;;;0.75;0.50;;;8.20;99.90;;;;;;4956590;28;20663;-75
2023/12/27 02:17:38;;;;;;;1.10;0.60;;;8.20;1.00;;;;;;4956140;28;20055;-74
2023/12/27 02:20:06;;;;;;;1.42;0.50;;;8.20;1.00;;;;;;4950163;28;20079;-74
2023/12/27 02:22:33;;;;;;;0.98;0.60;;;8.20;1.00;;;;;;4944088;28;20109;-74
2023/12/27 02:25:00;;;;;;;0.32;0.30;;;8.20;1.00;;;;;;4930749;28;20047;-75
2023/12/27 02:27:27;;;;;;;1.50;0.70;;;8.20;31.20;;;;;;4941247;28;20050;-75
2023/12/27 02:29:54;;;;;;;0.63;0.40;;;8.20;54.50;;;;;;4953356;28;20050;-75
2023/12/27 02:32:21;;;;;;;0.85;0.57;;;8.20;99.90;;;;;;4928688;28;20516;-74
2023/12/27 02:34:48;;;;;;;0.52;0.45;;;8.30;99.90;;;;;;4959861;28;20103;-74
2023/12/27 02:37:15;;;;;;;1.35;0.50;;;8.30;99.90;;;;;;4966125;28;20166;-74
2023/12/27 02:39:42;;;;;;;0.93;0.57;;;8.30;99.90;;;;;;4963852;28;20711;-74
2023/12/27 02:42:08;;;;;;;0.85;0.55;;;8.30;99.90;;;;;;4963741;28;20054;-76
2023/12/27 02:44:35;;;;;;;0.55;0.40;;;8.30;99.90;;;;;;4966910;28;20051;-74
2023/12/27 02:47:02;;;;;;;0.77;0.40;;;8.30;99.90;;;;;;4961053;28;20062;-74
2023/12/27 02:49:29;;;;;;;1.27;0.47;;;8.30;99.90;;;;;;4946030;28;20047;-74
2023/12/27 02:51:56;;;;;;;3.28;1.45;;;8.30;99.90;;;;;;4949276;28;20050;-75
2023/12/27 02:54:23;;;;;;;0.82;0.60;;;8.30;99.90;;;;;;4963912;28;20046;-74
2023/12/27 02:56:50;;;;;;;0.40;0.30;;;8.40;99.90;;;;;;4962228;28;20429;-74
2023/12/27 02:59:17;;;;;;;1.65;0.57;;;8.40;99.90;;;;;;4962012;28;20058;-75
2023/12/27 03:01:44;;;;;;;0.45;0.38;;;8.40;99.90;;;;;;4963251;28;20065;-74
2023/12/27 03:04:11;;;;;;;0.70;0.50;;;8.40;99.90;;;;;;4943216;28;20772;-74
2023/12/27 03:06:38;;;;;;;0.52;0.50;;;8.40;99.90;;;;;;4945671;28;20525;-74
2023/12/27 03:09:04;;;;;;;1.00;0.63;;;8.40;99.90;;;;;;4959981;28;20102;-74
2023/12/27 03:11:32;;;;;;;0.57;0.45;;;8.40;1.00;;;;;;4963251;28;20063;-74
2023/12/27 03:13:58;;;;;;;0.85;0.57;;;8.40;99.90;;;;;;4962513;28;20140;-74
2023/12/27 03:16:27;;;;;;;0.75;0.50;;;8.50;1.00;;;;;;4963663;28;20058;-74
2023/12/27 03:18:54;;;;;;;0.30;0.30;;;8.50;1.00;;;;;;4954918;28;20137;-74
2023/12/27 03:21:21;;;;;;;0.60;0.50;;;8.50;1.00;;;;;;4961890;28;20097;-74
2023/12/27 03:23:48;;;;;;;0.60;0.40;;;8.60;99.90;;;;;;4966486;28;20061;-74
2023/12/27 03:26:15;;;;;;;0.63;0.50;;;8.60;1.00;;;;;;4964805;28;20596;-74
2023/12/27 03:28:42;;;;;;;0.40;0.40;;;8.60;99.90;;;;;;4963805;28;20050;-74
2023/12/27 03:31:09;;;;;;;0.22;0.22;;;8.60;1.00;;;;;;4962622;28;20146;-74
2023/12/27 03:33:37;;;;;;;0.50;0.40;;;8.60;1.00;;;;;;4952926;28;20138;-74
2023/12/27 03:36:06;;;;;;;0.30;0.30;;;8.70;1.00;;;;;;4956332;28;20061;-74
2023/12/27 03:38:34;;;;;;;1.27;1.17;;;8.70;99.90;;;;;;4957924;28;20058;-75
2023/12/27 03:41:02;;;;;;;0.30;0.30;;;8.70;1.00;;;;;;4960652;28;20051;-74
2023/12/27 03:43:29;;;;;;;0.95;0.30;;;8.70;1.00;;;;;;4956176;28;20074;-75
2023/12/27 03:45:56;;;;;;;0.52;0.50;;;8.80;1.00;;;;;;4959813;28;20050;-74
2023/12/27 03:48:23;;;;;;;0.30;0.30;;;8.80;1.00;;;;;;4955600;28;20051;-74
2023/12/27 03:50:50;;;;;;;0.98;0.40;;;8.80;1.00;;;;;;4960243;28;20085;-76
2023/12/27 03:53:17;;;;;;;0.50;0.40;;;8.80;1.00;;;;;;4957742;28;20109;-75
2023/12/27 03:55:44;;;;;;;0.45;0.30;;;8.90;1.00;;;;;;4956953;28;20100;-75
2023/12/27 03:58:11;;;;;;;0.52;0.35;;;8.90;1.00;;;;;;4961291;28;20612;-74
2023/12/27 04:00:37;;;;;;;0.40;0.40;;;9.00;1.00;;;;;;4945372;28;20637;-75
2023/12/27 04:03:04;;;;;;;0.70;0.40;;;9.00;1.00;;;;;;4959811;28;20047;-75
2023/12/27 04:05:31;;;;;;;0.63;0.40;;;9.00;1.00;;;;;;4963945;28;20043;-74
2023/12/27 04:07:58;;;;;;;0.40;0.40;;;9.00;1.00;;;;;;4941912;28;20450;-75
2023/12/27 04:10:26;;;;;;;0.30;0.30;;;9.10;1.00;;;;;;4962036;28;20050;-74
2023/12/27 04:12:53;;;;;;;0.63;0.52;;;9.10;17.60;;;;;;4963093;28;20616;-74
2023/12/27 04:15:20;;;;;;;0.30;0.30;;;9.10;41.60;;;;;;4944772;28;20055;-75
2023/12/27 04:17:47;;;;;;;0.93;0.40;;;9.20;46.50;;;;;;4958251;28;20051;-75
2023/12/27 04:20:14;;;;;;;1.23;0.47;;;9.20;66.30;;;;;;4952773;28;20564;-74
2023/12/27 04:22:41;;;;;;;0.88;0.40;;;9.20;85.10;;;;;;4954690;28;20365;-74
2023/12/27 04:25:08;;;;;;;0.52;0.50;;;9.30;99.90;;;;;;4963199;28;20564;-74
2023/12/27 04:27:35;;;;;;;0.40;0.40;;;9.30;99.90;;;;;;4947548;28;20082;-74
2023/12/27 04:30:02;;;;;;;0.40;0.40;;;9.30;99.90;;;;;;4964295;28;20065;-74
2023/12/27 04:32:31;;;;;;;0.40;0.35;;;9.40;99.90;;;;;;4958464;28;20051;-74
2023/12/27 04:34:58;;;;;;;0.30;0.30;;;9.40;99.90;;;;;;4965988;28;20066;-74
2023/12/27 04:37:24;;;;;;;0.30;0.30;;;9.50;99.90;;;;;;4934617;28;20047;-74
2023/12/27 04:39:51;;;;;;;0.32;0.32;;;9.50;99.90;;;;;;4962472;28;20058;-74
2023/12/27 04:42:19;;;;;;;0.40;0.40;;;9.50;99.90;;;;;;4952279;28;20050;-74
2023/12/27 04:44:47;;;;;;;0.88;0.43;;;9.60;99.90;;;;;;4962516;28;20063;-74
2023/12/27 04:47:14;;;;;;;0.32;0.25;;;9.70;99.90;;;;;;4962846;28;20062;-75
2023/12/27 04:49:41;;;;;;;0.25;0.25;;;9.80;99.90;;;;;;4965431;28;20055;-75
2023/12/27 04:52:09;;;;;;;0.28;0.28;;;9.80;99.90;;;;;;4963014;28;20047;-76
2023/12/27 04:54:36;;;;;;;0.40;0.40;;;9.80;99.90;;;;;;4944977;28;20066;-76
2023/12/27 04:57:03;;;;;;;0.20;0.20;;;9.90;99.90;;;;;;4966107;28;20051;-75
2023/12/27 04:59:30;;;;;;;0.63;0.45;;;9.90;99.90;;;;;;4947967;28;20410;-75
2023/12/27 05:01:57;;;;;;;0.50;0.32;;;9.90;99.90;;;;;;4962855;28;20089;-76
2023/12/27 05:04:24;;;;;;;0.30;0.30;;;10.00;99.90;;;;;;4966803;28;20088;-75
2023/12/27 05:06:51;;;;;;;0.57;0.40;;;10.10;99.90;;;;;;4965516;28;20152;-75
2023/12/27 05:09:18;;;;;;;1.35;0.70;;;10.10;99.90;;;;;;4962527;28;20062;-75
2023/12/27 05:11:45;;;;;;;0.47;0.40;;;10.10;99.90;;;;;;4965288;28;20472;-75
2023/12/27 05:14:12;;;;;;;0.75;0.50;;;10.20;99.90;;;;;;4950171;28;20054;-75
2023/12/27 05:16:39;;;;;;;0.63;0.50;;;10.20;99.90;;;;;;4972541;28;20051;-75
2023/12/27 05:19:06;;;;;;;1.23;0.52;;;10.20;99.90;;;;;;4956704;28;20047;-74
2023/12/27 05:21:32;;;;;;;2.00;0.70;;;10.20;99.90;;;;;;4966967;28;20121;-74
2023/12/27 05:24:00;;;;;;;0.80;0.50;;;10.30;99.90;;;;;;4969346;28;20061;-74
2023/12/27 05:26:27;;;;;;;1.27;0.77;;;10.30;99.90;;;;;;4965816;28;20065;-75
2023/12/27 05:28:53;;;;;;;0.80;0.60;;;10.30;99.90;;;;;;4964607;28;20077;-75
2023/12/27 05:31:21;;;;;;;1.20;0.50;;;10.30;99.90;;;;;;4965528;28;20114;-75
2023/12/27 05:33:49;;;;;;;1.25;0.63;;;10.40;99.90;;;;;;4966279;28;20066;-75
2023/12/27 05:36:16;;;;;;;0.45;0.40;;;10.40;99.90;;;;;;4965307;28;20051;-74
2023/12/27 05:38:42;;;;;;;1.08;0.45;;;10.50;99.90;;;;;;4963509;28;20426;-74
2023/12/27 05:41:09;;;;;;;1.60;0.60;;;10.50;99.60;;;;;;4966493;28;20058;-75
2023/12/27 05:43:37;;;;;;;0.75;0.47;;;10.50;39.20;;;;;;4966279;28;20051;-75
2023/12/27 05:46:04;;;;;;;0.43;0.43;;;10.50;9.50;;;;;;4948162;28;20065;-75
2023/12/27 05:48:31;;;;;;;0.43;0.38;;;10.60;1.00;;;;;;4957075;28;20145;-75
2023/12/27 05:50:58;;;;;;;0.40;0.40;;;10.60;1.00;;;;;;4945605;28;20106;-75
2023/12/27 05:53:25;;;;;;;0.65;0.50;;;10.60;1.00;;;;;;4960303;28;20085;-75
2023/12/27 05:55:52;;;;;;;0.40;0.40;;;10.60;99.90;;;;;;4937434;28;20063;-75
2023/12/27 05:58:18;;;;;;;1.23;0.60;;;10.60;99.90;;;;;;4963782;28;20070;-75
2023/12/27 06:00:45;;;;;;;0.43;0.32;;;10.60;99.90;;;;;;4963269;28;20062;-74
2023/12/27 06:03:12;;;;;;;0.70;0.50;;;10.70;99.90;;;;;;4956680;28;20058;-75
2023/12/27 06:05:40;;;;;;;0.55;0.50;;;10.70;95.90;;;;;;4958376;28;20534;-75
2023/12/27 06:08:07;;;;;;;1.17;0.57;;;10.70;1.00;;;;;;4959372;28;20109;-75
2023/12/27 06:10:34;;;;;;;0.40;0.40;;;10.70;99.90;;;;;;4963949;28;20489;-75
2023/12/27 06:13:01;;;;;;;1.73;0.60;;;10.80;99.90;;;;;;4961939;28;20059;-75
2023/12/27 06:15:28;;;;;;;0.63;0.60;;;10.80;1.00;;;;;;4963852;28;20054;-75
2023/12/27 06:17:55;;;;;;;2.45;0.80;;;10.80;1.00;;;;;;4943493;28;20055;-75
2023/12/27 06:20:22;;;;;;;1.42;0.65;;;10.80;99.90;;;;;;4944935;28;20059;-75
2023/12/27 06:22:49;;;;;;;0.63;0.50;;;10.80;1.00;;;;;;4970162;28;20617;-74
2023/12/27 06:25:16;;;;;;;1.30;0.70;;;10.80;99.90;;;;;;4956365;28;20464;-75
2023/12/27 06:27:43;;;;;;;1.35;0.70;;;10.80;99.90;;;;;;4958421;28;20141;-75
2023/12/27 06:30:10;;;;;;;1.42;0.70;;;10.90;99.90;;;;;;4963429;28;20057;-76
2023/12/27 06:32:38;;;;;;;0.60;0.50;;;10.90;99.90;;;;;;4960180;28;20038;-75
2023/12/27 06:35:05;;;;;;;0.95;0.85;;;10.90;99.90;;;;;;4963276;28;20145;-75
2023/12/27 06:37:32;;;;;;;1.73;1.05;;;10.90;99.90;;;;;;4946491;28;20493;-75
2023/12/27 06:39:59;;;;;;;1.75;0.80;;;10.90;99.90;;;;;;4932534;28;20117;-74
2023/12/27 06:42:26;;;;;;;1.58;0.95;;;10.90;99.90;;;;;;4963101;28;20054;-75
2023/12/27 06:44:52;;;;;;;0.77;0.70;;;10.90;99.90;;;;;;4960431;28;20065;-74
2023/12/27 06:47:19;;;;;;;1.88;0.77;;;11.00;92.40;;;;;;4961444;28;20051;-75
2023/12/27 06:49:47;;;;;;;2.50;0.98;;;11.00;1.00;;;;;;4965045;28;20059;-74
2023/12/27 06:52:14;;;;;;;2.20;1.17;;;11.00;99.90;;;;;;4964622;28;20065;-76
2023/12/27 06:54:41;;;;;;;2.25;1.30;;;11.00;99.90;;;;;;4964339;28;20066;-74
2023/12/27 06:57:08;;;;;;;2.25;1.27;;;11.00;99.90;;;;;;4928926;28;20047;-75
2023/12/27 06:59:35;;;;;;;4.43;1.50;;;11.00;1.00;;;;;;4959411;28;20062;-75
2023/12/27 07:02:04;;;;;;;1.92;0.90;;;11.00;99.90;;;;;;4961257;28;20097;-75
2023/12/27 07:04:31;;;;;;;3.72;1.20;;;11.10;99.90;;;;;;4942966;28;20062;-75
2023/12/27 07:06:58;;;;;;;2.13;1.05;;;11.10;99.90;;;;;;4951964;28;20135;-74
2023/12/27 07:09:25;;;;;;;2.33;1.02;;;11.10;99.90;;;;;;4962962;28;20055;-74
2023/12/27 07:11:52;;;;;;;1.60;0.98;;;11.10;52.70;;;;;;4960297;28;20105;-75
2023/12/27 07:14:19;;;;;;;2.10;1.10;;;11.10;1.00;;;;;;4957938;28;20058;-75
2023/12/27 07:16:46;;;;;;;1.60;1.05;;;11.20;99.90;;;;;;4939344;28;20047;-75
2023/12/27 07:19:14;;;;;;;1.67;1.40;;;11.20;99.90;;;;;;4940689;28;20093;-75
2023/12/27 07:21:42;;;;;;;1.67;0.90;;;11.20;99.90;;;;;;4956491;28;20054;-74
2023/12/27 07:24:08;;;;;;;1.05;0.90;;;11.20;99.90;;;;;;4959027;28;20047;-74
2023/12/27 07:26:35;;;;;;;0.90;0.80;;;11.20;99.90;;;;;;4958867;28;20073;-74
2023/12/27 07:29:02;;;;;;;0.85;0.80;;;11.30;44.30;;;;;;4961199;28;20054;-77
2023/12/27 07:31:29;;;;;;;1.05;0.80;;;11.30;99.90;;;;;;4940359;28;20055;-74
2023/12/27 07:33:56;;;;;;;1.13;0.82;;;11.30;99.90;;;;;;4957955;28;20054;-75
2023/12/27 07:36:23;;;;;;;1.05;0.88;;;11.20;99.90;;;;;;4957078;28;20042;-75
2023/12/27 07:38:50;;;;;;;0.98;0.73;;;11.20;99.90;;;;;;4959731;28;20058;-74
2023/12/27 07:41:17;;;;;;;1.35;0.80;;;11.20;1.00;;;;;;4958537;28;20058;-74
2023/12/27 07:43:44;;;;;;;2.60;1.00;;;11.20;99.90;;;;;;4960221;28;20050;-75
2023/12/27 07:46:12;;;;;;;1.95;1.02;;;11.20;18.20;;;;;;4964848;28;20054;-75
2023/12/27 07:48:39;;;;;;;1.10;0.98;;;11.20;99.90;;;;;;4962280;28;20047;-76
2023/12/27 07:51:08;;;;;;;2.25;1.23;;;11.20;99.90;;;;;;4963110;28;20129;-76
2023/12/27 07:53:35;;;;;;;1.27;1.05;;;11.20;99.90;;;;;;4950545;28;20699;-81
2023/12/27 07:56:02;;;;;;;1.75;1.25;;;11.20;99.90;;;;;;4932002;28;20153;-75
2023/12/27 07:58:29;;;;;;;1.50;0.90;;;11.20;99.90;;;;;;4949471;28;20042;-73
2023/12/27 08:00:56;;;;;;;1.20;0.88;;;11.30;99.90;;;;;;4947250;28;20050;-71
2023/12/27 08:03:23;;;;;;;1.45;1.00;;;11.30;99.90;;;;;;4958292;28;20046;-76
2023/12/27 08:05:51;;;;;;;1.20;0.88;;;11.30;99.90;;;;;;4964006;28;20070;-74
2023/12/27 08:08:18;;;;;;;1.05;0.90;;;11.30;72.90;;;;;;4944197;28;20590;-73
2023/12/27 08:10:45;;;;;;;2.53;1.13;;;11.40;99.90;;;;;;4957857;28;20057;-74
2023/12/27 08:13:12;;;;;;;3.72;1.33;;;11.40;99.90;;;;;;4958896;28;20054;-73
2023/12/27 08:15:40;;;;;;;2.55;1.23;;;11.50;38.20;;;;;;4957522;28;20089;-74
2023/12/27 08:18:08;;;;;;;1.77;1.08;;;11.50;1.00;;;;;;4960899;28;20130;-74
2023/12/27 08:20:36;;;;;;;2.00;1.40;;;11.50;99.90;;;;;;4958962;28;20576;-74
2023/12/27 08:23:03;;;;;;;2.78;1.55;;;11.50;69.90;;;;;;4961580;28;20494;-74
2023/12/27 08:25:30;;;;;;;2.28;1.33;;;11.50;1.00;;;;;;4967286;28;20117;-74
2023/12/27 08:27:56;;;;;;;2.63;1.40;;;11.50;1.00;;;;;;4959168;28;20058;-74
2023/12/27 08:30:24;;;;;;;3.60;1.63;;;11.60;99.90;;;;;;4965680;28;20050;-74
2023/12/27 08:32:51;;;;;;;1.88;1.23;;;11.60;99.90;;;;;;4944065;28;20148;-74
2023/12/27 08:35:19;;;;;;;2.03;1.20;;;11.60;1.00;;;;;;4960945;28;20082;-74
2023/12/27 08:37:46;;;;;;;2.70;1.30;;;11.70;99.90;;;;;;4962861;28;20058;-74
2023/12/27 08:40:13;;;;;;;3.38;1.73;;;11.70;99.90;;;;;;4964816;28;20509;-74
2023/12/27 08:42:40;;;;;;;2.63;1.60;;;11.70;99.90;;;;;;4944966;28;20046;-74
2023/12/27 08:45:07;;;;;;;4.18;1.70;;;11.80;89.90;;;;;;4961707;28;20142;-74
2023/12/27 08:47:37;;;;;;;2.10;1.30;;;11.80;1.00;;;;;;4946067;28;20148;-76
2023/12/27 08:50:07;;;;;;;2.20;1.48;;;11.80;99.90;;;;;;4955886;28;20050;-76
2023/12/27 08:52:34;;;;;;;3.30;1.67;;;11.80;99.90;;;;;;4958165;28;20158;-77
2023/12/27 08:55:02;;;;;;;3.22;1.23;;;11.90;99.90;;;;;;4946344;28;20051;-76
2023/12/27 08:57:29;;;;;;;2.38;1.40;;;11.90;99.90;;;;;;4978214;28;20054;-76
2023/12/27 08:59:59;;;;;;;2.10;1.35;;;11.90;99.90;;;;;;4943440;28;20061;-77
2023/12/27 09:02:27;;;;;;;2.83;1.65;;;11.90;99.90;;;;;;4961132;28;20137;-79
2023/12/27 09:04:54;;;;;;;2.20;1.83;;;11.90;99.90;;;;;;4961132;28;20137;-79
2023/12/27 09:07:21;;;;;;;1.98;1.40;;;11.90;99.90;;;;;;4956244;28;20102;-79
2023/12/27 09:09:48;;;;;;;2.53;1.50;;;11.90;99.90;;;;;;4928114;28;20060;-80
2023/12/27 09:12:15;;;;;;;2.78;1.50;;;11.90;99.90;;;;;;4960789;28;20101;-80
2023/12/27 09:14:42;;;;;;;2.53;1.42;;;11.90;99.90;;;;;;4959742;28;20142;-78
2023/12/27 09:17:08;;;;;;;2.25;1.63;;;11.90;99.90;;;;;;4925458;28;20053;-79
2023/12/27 09:19:35;;;;;;;3.08;1.80;;;11.90;99.90;;;;;;4941352;28;20172;-78
2023/12/27 09:22:02;;;;;;;3.65;2.05;;;12.00;99.90;;;;;;4952331;28;20185;-80
2023/12/27 09:24:29;;;;;;;3.28;2.05;;;12.00;77.50;;;;;;4942075;28;20058;-78
2023/12/27 09:26:58;;;;;;;2.13;1.63;;;12.00;65.10;;;;;;4945859;28;20073;-78
2023/12/27 09:29:25;;;;;;;4.15;2.30;;;12.00;62.70;;;;;;4926526;28;20046;-77
2023/12/27 09:31:52;;;;;;;3.15;1.90;;;12.00;20.10;;;;;;4943646;28;20922;-79
2023/12/27 09:34:19;;;;;;;5.43;2.60;;;12.00;21.90;;;;;;4954661;28;20061;-77
2023/12/27 09:36:46;;;;;;;6.10;2.00;;;12.00;1.00;;;;;;4951809;28;20050;-77
2023/12/27 09:39:13;;;;;;;4.55;2.08;;;12.00;1.00;;;;;;4971554;28;20061;-83
2023/12/27 09:41:41;;;;;;;3.85;1.88;;;12.00;1.00;;;;;;4932881;28;20043;-80
2023/12/27 09:44:08;;;;;;;4.13;2.38;;;12.00;1.00;;;;;;4942253;28;20066;-80
2023/12/27 09:46:35;;;;;;;4.47;2.55;;;12.10;1.00;;;;;;4945834;28;20671;-79
2023/12/27 09:49:02;;;;;;;3.38;2.08;;;12.10;1.00;;;;;;4944052;28;20039;-79
2023/12/27 09:51:30;;;;;;;4.70;2.00;;;12.10;1.00;;;;;;4961632;28;20055;-79
2023/12/27 09:53:58;;;;;;;2.17;1.65;;;12.10;1.00;;;;;;4944479;28;20047;-79
2023/12/27 09:56:25;;;;;;;1.77;1.38;;;12.20;1.00;;;;;;4927226;28;20814;-78
2023/12/27 09:59:00;;;;;;;3.13;2.17;;;12.20;1.00;;;;;;4926838;28;20046;-77
2023/12/27 10:01:29;;;;;;;2.83;1.90;;;12.20;1.00;;;;;;4962703;28;20054;-79
2023/12/27 10:04:04;;;;;;;3.10;1.77;;;12.20;1.00;;;;;;4925981;28;20078;-78
2023/12/27 10:06:44;;;;;;;4.50;2.13;;;12.20;1.00;;;;;;4938127;28;20042;-81
2023/12/27 10:09:15;;;;;;;3.25;1.67;;;12.20;1.00;;;;;;4937031;28;20137;-73
2023/12/27 10:11:45;;;;;;;4.32;2.28;;;12.20;1.00;;;;;;4951669;28;20606;-85
2023/12/27 10:14:14;;;;;;;3.63;1.98;;;12.20;1.00;;;;;;4921738;28;20521;-80
2023/12/27 10:16:41;;;;;;;2.65;1.67;;;12.20;99.90;;;;;;4954213;28;20394;-80
2023/12/27 10:19:08;;;;;;;3.50;1.90;;;12.20;1.00;;;;;;4948575;28;20153;-78
2023/12/27 10:21:42;;;;;;;4.97;2.33;;;12.10;1.00;;;;;;4958183;28;20093;-79
2023/12/27 10:24:12;;;;;;;2.78;1.75;;;12.10;1.00;;;;;;4953001;28;20161;-78
2023/12/27 10:26:39;;;;;;;2.63;1.85;;;12.20;1.00;;;;;;4958098;28;20051;-78
2023/12/27 10:29:07;;;;;;;3.33;1.98;;;12.20;1.00;;;;;;4967576;28;20101;-77
2023/12/27 10:31:36;;;;;;;3.47;2.30;;;12.10;1.00;;;;;;4961051;28;20164;-81
2023/12/27 10:34:05;;;;;;;2.63;1.45;;;12.10;1.00;;;;;;4958627;28;20054;-85
2023/12/27 10:36:38;;;;;;;2.50;1.65;;;12.10;1.00;;;;;;4963902;28;20043;-82
2023/12/27 10:39:06;;;;;;;3.35;1.70;;;12.10;1.00;;;;;;4971991;28;20051;-80
2023/12/27 10:41:33;;;;;;;2.58;1.83;;;12.10;1.00;;;;;;4946957;28;20103;-79
2023/12/27 10:44:04;;;;;;;2.35;1.52;;;12.10;1.00;;;;;;4958336;28;20062;-79
2023/12/27 10:46:34;;;;;;;4.28;2.03;;;12.00;1.00;;;;;;4957559;28;20442;-77
2023/12/27 10:49:03;;;;;;;1.48;1.33;;;12.10;1.00;;;;;;4918566;29;20051;-78
2023/12/27 10:51:38;;;;;;;3.15;1.85;;;12.00;1.00;;;;;;4942982;28;20262;-78
2023/12/27 10:54:05;;;;;;;;;;;12.10;1.00;;;;;;4924534;28;20259;-78
2023/12/27 10:56:39;;;;;;;3.30;1.95;;;12.00;1.00;;;;;;4954192;28;19992;-78
2023/12/27 10:59:10;;;;;;;3.97;2.40;;;12.00;1.00;;;;;;4941992;28;20129;-83
2023/12/27 11:01:38;;;;;;;3.45;2.20;;;12.00;1.00;;;;;;4945841;28;20058;-85
2023/12/27 11:04:09;;;;;;;2.90;2.17;;;12.00;1.00;;;;;;4928087;28;20063;-82
2023/12/27 11:06:37;;;;;;;2.92;1.80;;;12.00;1.00;;;;;;4963919;28;20087;-84
2023/12/27 11:09:13;;;;;;;3.33;2.30;;;12.00;1.00;;;;;;4947738;28;20048;-83
2023/12/27 11:11:40;;;;;;;3.17;1.80;;;12.10;99.90;;;;;;4961221;28;20058;-85
2023/12/27 11:14:13;;;;;;;3.70;1.90;;;12.00;1.00;;;;;;4945686;28;20043;-86
2023/12/27 11:16:40;;;;;;;3.08;2.00;;;12.00;1.00;;;;;;4957052;28;20046;-85
2023/12/27 11:19:08;;;;;;;3.78;1.73;;;12.00;1.00;;;;;;4924397;28;20567;-82
2023/12/27 11:21:36;;;;;;;2.42;1.92;;;12.00;97.00;;;;;;4952642;28;20148;-82
2023/12/27 11:24:06;;;;;;;2.95;1.92;;;11.90;99.90;;;;;;4922241;28;20057;-83
2023/12/27 11:26:36;;;;;;;4.18;1.85;;;11.90;99.90;;;;;;4948293;28;20154;-83
2023/12/27 11:29:10;;;;;;;2.33;1.70;;;11.90;99.90;;;;;;4953390;28;20156;-81
2023/12/27 11:31:42;;;;;;;4.75;3.00;;;11.70;1.00;;;;;;4938747;28;20046;-88
2023/12/27 11:34:10;;;;;;;2.55;1.77;;;11.70;1.00;;;;;;4923210;28;20135;-76
2023/12/27 11:36:38;;;;;;;3.03;1.70;;;11.70;99.90;;;;;;4934948;28;20077;-76
2023/12/27 11:39:25;;;;;;;2.53;1.73;;;11.60;99.90;;;;;;4934088;28;20490;-78
2023/12/27 11:41:52;;;;;;;3.80;1.80;;;11.60;81.40;;;;;;4949023;28;20090;-80
2023/12/27 11:44:20;;;;;;;3.30;1.95;;;11.60;25.50;;;;;;4932839;28;20106;-80
2023/12/27 11:46:48;;;;;;;1.65;1.30;;;11.60;1.00;;;;;;4935941;28;20105;-79
2023/12/27 11:49:19;;;;;;;2.33;1.38;;;11.60;99.90;;;;;;4920419;28;20050;-78
2023/12/27 11:51:47;;;;;;;2.67;1.60;;;11.60;99.90;;;;;;4941612;28;20062;-79
2023/12/27 11:54:22;;;;;;;2.95;1.80;;;11.50;8.80;;;;;;4939353;28;20138;-79
2023/12/27 11:56:49;;;;;;;3.30;1.65;;;11.50;99.90;;;;;;4939885;28;20046;-80
2023/12/27 11:59:16;;;;;;;3.03;1.65;;;11.50;1.00;;;;;;4923935;28;20051;-78
2023/12/27 12:01:43;;;;;;;2.20;1.40;;;11.50;20.80;;;;;;4919680;28;20065;-80
2023/12/27 12:04:35;;;;;;;2.20;1.40;;;11.40;99.90;;;;;;4935125;28;20047;-78
2023/12/27 12:07:23;;;;;;;3.58;1.85;;;11.40;1.00;;;;;;4932636;28;20306;-78
2023/12/27 12:09:50;;;;;;;2.75;1.95;;;11.40;1.00;;;;;;4952560;28;20062;-79
2023/12/27 12:12:18;;;;;;;3.50;1.80;;;11.40;99.90;;;;;;4936418;28;20557;-79
2023/12/27 12:14:46;;;;;;;3.65;1.90;;;11.40;37.30;;;;;;4953906;28;20047;-78
2023/12/27 12:17:13;;;;;;;3.95;1.98;;;11.40;1.00;;;;;;4954482;28;20055;-78
2023/12/27 12:19:41;;;;;;;2.90;1.80;;;11.40;99.90;;;;;;4943457;28;20055;-77
2023/12/27 12:22:08;;;;;;;3.17;2.40;;;11.50;99.90;;;;;;4943881;28;20061;-77
2023/12/27 12:24:35;;;;;;;3.05;1.60;;;11.50;99.90;;;;;;4941638;28;20066;-78
2023/12/27 12:27:03;;;;;;;3.83;2.13;;;11.60;12.20;;;;;;4926810;28;20093;-77
2023/12/27 12:29:31;;;;;;;2.92;1.60;;;11.60;99.90;;;;;;4956209;28;20057;-78
2023/12/27 12:31:58;;;;;;;3.17;1.88;;;11.60;99.90;;;;;;4924323;28;20046;-79
2023/12/27 12:34:28;;;;;;;2.80;1.83;;;11.60;99.90;;;;;;4939638;28;20219;-77
2023/12/27 12:36:58;;;;;;;2.70;1.73;;;11.70;99.90;;;;;;4942027;28;20050;-79
2023/12/27 12:39:27;;;;;;;4.03;1.98;;;11.70;99.90;;;;;;4939925;28;20057;-79
2023/12/27 12:41:55;;;;;;;3.38;2.00;;;11.70;99.90;;;;;;4953694;28;20530;-79
2023/12/27 12:44:23;;;;;;;3.45;1.55;;;11.80;72.20;;;;;;4922497;28;20141;-80
2023/12/27 12:46:56;;;;;;;3.97;2.00;;;11.80;18.50;;;;;;4957276;28;20686;-80
2023/12/27 12:49:23;;;;;;;2.85;1.75;;;11.90;1.00;;;;;;4936047;28;20146;-79
2023/12/27 12:51:52;;;;;;;5.10;2.47;;;12.00;1.00;;;;;;4923992;28;20835;-82
2023/12/27 12:54:22;;;;;;;3.67;2.13;;;12.00;1.00;;;;;;4924803;28;20051;-80
2023/12/27 12:56:50;;;;;;;2.72;1.70;;;12.10;1.00;;;;;;4971401;28;20054;-81